TAF Text Data
IDs:
Format:
Raw Decoded Include METAR

Data at: 0106 UTC 29 Nov 2020

KCAR 282320Z 2900/2924 VRB03KT 1SM BR VCSH OVC003
  FM290300 VRB03KT 5SM BR VCSH SCT003 OVC012
  FM290600 VRB03KT P6SM SCT015 OVC025
  FM291200 VRB03KT P6SM SCT025 BKN035